createdAt,value
2023-01-25T00:01:22.905Z,103727.38
2023-01-25T00:04:03.255Z,103737.88
2023-01-25T00:06:36.267Z,103731.72
2023-01-25T00:09:03.584Z,103729.13
2023-01-25T00:11:37.288Z,103725.59
2023-01-25T00:14:12.226Z,103717.72
2023-01-25T00:16:46.465Z,103711.59
2023-01-25T00:19:19.221Z,103712.50
2023-01-25T00:21:46.382Z,103709.03
2023-01-25T00:24:21.330Z,103711.66
2023-01-25T00:26:48.155Z,103702.00
2023-01-25T00:29:21.224Z,103696.72
2023-01-25T00:32:06.097Z,103703.72
2023-01-25T00:34:51.275Z,103709.03
2023-01-25T00:37:35.308Z,103697.59
2023-01-25T00:40:08.313Z,103702.00
2023-01-25T00:42:41.297Z,103703.75
2023-01-25T00:45:17.291Z,103702.00
2023-01-25T00:47:43.917Z,103700.25
2023-01-25T00:50:11.281Z,103697.63
2023-01-25T00:52:44.265Z,103703.75
2023-01-25T00:55:11.171Z,103700.25
2023-01-25T00:57:44.279Z,103703.72
2023-01-25T01:00:11.707Z,103696.75
2023-01-25T01:02:45.251Z,103691.41
2023-01-25T01:05:18.747Z,103691.47
2023-01-25T01:07:52.332Z,103686.16
2023-01-25T01:10:19.177Z,103681.78
2023-01-25T01:12:52.232Z,103683.53
2023-01-25T01:15:18.883Z,103684.41
2023-01-25T01:17:52.253Z,103680.03
2023-01-25T01:20:21.687Z,103674.81
2023-01-25T01:22:55.364Z,103677.44
2023-01-25T01:25:28.362Z,103686.19
2023-01-25T01:27:55.231Z,103684.44
2023-01-25T01:30:28.272Z,103678.28
2023-01-25T01:33:01.411Z,103687.00
2023-01-25T01:35:29.859Z,103687.00
2023-01-25T01:37:56.636Z,103675.63
2023-01-25T01:40:31.363Z,103679.13
2023-01-25T01:43:03.796Z,103679.13
2023-01-25T01:45:56.380Z,103686.09
2023-01-25T01:48:31.178Z,103686.09
2023-01-25T01:51:10.349Z,103672.97
2023-01-25T01:53:38.970Z,103677.34
2023-01-25T01:56:17.383Z,103679.97
2023-01-25T01:58:46.376Z,103662.50
2023-01-25T02:01:19.363Z,103666.84
2023-01-25T02:04:17.279Z,103672.97
2023-01-25T02:06:58.304Z,103675.59
2023-01-25T02:09:35.309Z,103669.47
2023-01-25T02:12:09.344Z,103666.81
2023-01-25T02:14:40.528Z,103671.19
2023-01-25T02:17:14.271Z,103657.16
2023-01-25T02:19:54.304Z,103665.03
2023-01-25T02:22:37.323Z,103664.19
2023-01-25T02:25:19.321Z,103658.09
2023-01-25T02:28:00.315Z,103651.03
2023-01-25T02:30:27.245Z,103656.31
2023-01-25T02:32:53.989Z,103658.06
2023-01-25T02:35:43.295Z,103654.53
2023-01-25T02:38:13.319Z,103657.19
2023-01-25T02:41:02.249Z,103645.84
2023-01-25T02:43:39.324Z,103632.72
2023-01-25T02:46:25.361Z,103637.09
2023-01-25T02:48:52.371Z,103631.84
2023-01-25T02:51:33.336Z,103630.94
2023-01-25T02:54:01.398Z,103632.69
2023-01-25T02:56:36.326Z,103627.44
2023-01-25T02:59:05.899Z,103628.31
2023-01-25T03:01:40.376Z,103635.28
2023-01-25T03:04:13.705Z,103632.66
2023-01-25T03:06:47.349Z,103629.13
2023-01-25T03:09:13.971Z,103627.41
2023-01-25T03:11:47.316Z,103620.41
2023-01-25T03:14:20.290Z,103610.81
2023-01-25T03:16:53.304Z,103609.91
2023-01-25T03:19:19.917Z,103601.19
2023-01-25T03:21:53.280Z,103602.88
2023-01-25T03:24:26.287Z,103609.88
2023-01-25T03:27:11.036Z,103610.72
2023-01-25T03:29:45.281Z,103608.09
2023-01-25T03:32:25.317Z,103601.97
2023-01-25T03:34:58.413Z,103584.44
2023-01-25T03:37:30.124Z,103592.38
2023-01-25T03:40:04.349Z,103585.41
2023-01-25T03:42:31.089Z,103582.78
2023-01-25T03:45:04.362Z,103581.00
2023-01-25T03:47:31.317Z,103581.00
2023-01-25T03:50:04.411Z,103578.38
2023-01-25T03:52:38.306Z,103574.84
2023-01-25T03:55:12.350Z,103572.25
2023-01-25T03:57:39.164Z,103573.16
2023-01-25T04:00:13.323Z,103571.41
2023-01-25T16:53:36.827Z,102914.78
2023-01-25T16:56:03.548Z,102918.25
2023-01-25T16:58:36.815Z,102920.84
2023-01-25T17:01:09.128Z,102909.53
2023-01-25T17:03:42.727Z,102922.63
2023-01-25T17:06:25.799Z,102917.38
2023-01-25T17:08:54.955Z,102912.16
2023-01-25T17:11:29.784Z,102906.91
2023-01-25T17:13:59.517Z,102907.78
2023-01-25T17:16:29.142Z,102900.78
2023-01-25T17:19:04.826Z,102899.06
2023-01-25T17:21:32.984Z,102896.44
2023-01-25T17:24:07.857Z,102894.69
2023-01-25T17:26:34.998Z,102883.34
2023-01-25T17:29:09.801Z,102879.88
2023-01-25T17:31:36.722Z,102880.72
2023-01-25T17:34:08.297Z,102872.03
2023-01-25T17:36:41.763Z,102870.28
2023-01-25T17:39:14.734Z,102872.91
2023-01-25T17:41:46.309Z,102864.19
2023-01-25T17:44:20.762Z,102869.41
2023-01-25T17:46:48.500Z,102856.34
2023-01-25T17:49:25.753Z,102844.13
2023-01-25T17:51:58.846Z,102838.06
2023-01-25T17:54:32.301Z,102834.56
2023-01-25T17:57:05.791Z,102811.91
2023-01-25T17:59:38.870Z,102811.03
2023-01-25T18:02:06.645Z,102811.03
2023-01-25T18:04:40.809Z,102808.41
2023-01-25T18:07:07.418Z,102807.56
2023-01-25T18:09:35.940Z,102779.69
2023-01-25T18:12:08.870Z,102779.66
2023-01-25T18:14:35.555Z,102779.66
2023-01-25T18:17:09.949Z,102771.84
2023-01-25T18:19:36.929Z,102771.84
2023-01-25T18:22:10.783Z,102760.50
2023-01-25T18:24:37.716Z,102749.16
2023-01-25T18:27:07.860Z,102737.84
2023-01-25T18:30:01.831Z,102743.06
2023-01-25T18:32:30.652Z,102740.44
2023-01-25T18:35:03.798Z,102741.34
2023-01-25T18:37:35.917Z,102739.56
2023-01-25T18:40:08.829Z,102736.06
2023-01-25T18:42:35.462Z,102739.56
2023-01-25T18:45:09.160Z,102719.53
2023-01-25T18:47:36.142Z,102717.78
2023-01-25T18:50:09.858Z,102712.59
2023-01-25T18:52:42.853Z,102713.47
2023-01-25T18:55:15.805Z,102714.28
2023-01-25T18:57:55.838Z,102716.94
2023-01-25T19:00:28.860Z,102723.91
2023-01-25T19:02:55.587Z,102720.41
2023-01-25T19:05:28.814Z,102704.72
2023-01-25T19:08:01.784Z,102725.66
2023-01-25T19:10:34.770Z,102714.31
2023-01-25T19:13:07.817Z,102703.00
2023-01-25T19:15:34.536Z,102701.25
2023-01-25T19:18:07.921Z,102698.63
2023-01-25T19:20:40.833Z,102695.16
2023-01-25T19:23:14.852Z,102685.56
2023-01-25T19:25:41.527Z,102686.44
2023-01-25T19:28:14.816Z,102689.03
2023-01-25T19:30:41.493Z,102694.28
2023-01-25T19:33:14.870Z,102693.41
2023-01-25T19:35:47.827Z,102700.38
2023-01-25T19:38:20.851Z,102702.09
2023-01-25T19:40:53.822Z,102686.44
2023-01-25T19:43:20.632Z,102691.66
2023-01-25T19:45:53.834Z,102690.78
2023-01-25T19:48:20.678Z,102696.03
2023-01-25T19:50:53.845Z,102697.78
2023-01-25T19:53:40.855Z,102698.63
2023-01-25T19:56:16.191Z,102692.53
2023-01-25T19:58:48.063Z,102675.97
2023-01-25T20:01:29.301Z,102674.25
2023-01-25T20:04:07.859Z,102681.19
2023-01-25T20:06:41.819Z,102679.47
2023-01-25T20:09:11.353Z,102681.22
2023-01-25T20:11:44.866Z,102686.44
2023-01-25T20:14:20.842Z,102664.66
2023-01-25T20:16:58.844Z,102662.03
2023-01-25T20:19:25.668Z,102661.19
2023-01-25T20:21:52.567Z,102649.84
2023-01-25T20:24:32.876Z,102645.50
2023-01-25T20:27:05.810Z,102630.69
2023-01-25T20:29:32.508Z,102631.56
2023-01-25T20:32:05.973Z,102628.06
2023-01-25T20:34:38.875Z,102618.50
2023-01-25T20:37:05.656Z,102620.25
2023-01-25T20:39:38.831Z,102627.19
2023-01-25T20:42:05.572Z,102623.75
2023-01-25T20:44:38.815Z,102620.25
2023-01-25T20:47:05.588Z,102620.25
2023-01-25T20:49:34.620Z,102622.88
2023-01-25T20:52:07.895Z,102614.16
2023-01-25T20:54:44.034Z,102607.19
2023-01-25T20:57:16.825Z,102604.56
2023-01-25T20:59:49.840Z,102603.72
2023-01-25T21:02:22.923Z,102603.72
2023-01-25T21:04:49.603Z,102603.69
2023-01-25T21:07:22.848Z,102600.22
2023-01-25T21:09:49.580Z,102604.56
2023-01-25T21:12:22.842Z,102611.56
2023-01-25T21:14:50.207Z,102590.63
2023-01-25T21:17:22.860Z,102575.84
2023-01-25T21:19:49.417Z,102575.84
2023-01-25T21:22:22.911Z,102594.97
2023-01-25T21:24:55.882Z,102592.38
2023-01-25T21:27:29.835Z,102593.25
2023-01-25T21:29:57.333Z,102585.41
2023-01-25T21:32:30.905Z,102580.19
2023-01-25T21:35:03.939Z,102568.00
2023-01-25T21:37:30.676Z,102558.44
2023-01-25T21:40:03.964Z,102560.16
2023-01-25T21:42:32.402Z,102569.75
2023-01-25T21:45:24.913Z,102560.16
2023-01-25T21:47:51.615Z,102581.09
2023-01-25T21:50:43.808Z,102577.59
2023-01-25T21:53:17.269Z,102580.19
2023-01-25T21:56:02.019Z,102576.72
2023-01-25T21:58:28.647Z,102580.19
2023-01-25T22:01:13.290Z,102577.56
2023-01-25T22:03:40.068Z,102573.22
2023-01-25T22:06:13.853Z,102580.19
2023-01-25T22:08:40.505Z,102574.09
2023-01-25T22:11:14.919Z,102565.41
2023-01-25T22:13:48.019Z,102554.94
2023-01-25T22:16:15.182Z,102545.38
2023-01-25T22:18:49.902Z,102558.44
2023-01-25T22:21:22.099Z,102563.66
2023-01-25T22:23:55.982Z,102565.38
2023-01-25T22:26:30.926Z,102568.00
2023-01-25T22:29:05.836Z,102561.91
2023-01-25T22:31:32.870Z,102570.59
2023-01-25T22:34:07.021Z,102554.06
2023-01-25T22:36:34.055Z,102557.56
2023-01-25T22:39:00.883Z,102559.28
2023-01-25T22:41:39.915Z,102538.41
2023-01-25T22:44:12.878Z,102541.84
2023-01-25T22:46:45.898Z,102522.72
2023-01-25T22:49:18.854Z,102534.03
2023-01-25T22:51:51.869Z,102543.63
2023-01-25T22:54:31.892Z,102529.66
2023-01-25T22:57:05.930Z,102528.78
2023-01-25T22:59:32.647Z,102529.66
2023-01-25T23:02:05.857Z,102522.72
2023-01-25T23:04:38.865Z,102527.94
2023-01-25T23:07:19.160Z,102535.75
2023-01-25T23:09:48.494Z,102530.53
2023-01-25T23:12:22.026Z,102527.91
2023-01-25T23:14:51.783Z,102525.34
2023-01-25T23:17:48.829Z,102514.88
2023-01-25T23:20:15.531Z,102508.78
2023-01-25T23:22:48.972Z,102511.38
2023-01-25T23:25:15.925Z,102514.84
2023-01-25T23:27:48.955Z,102507.91
2023-01-25T23:30:16.128Z,102506.16
2023-01-25T23:32:52.891Z,102501.81
2023-01-25T23:35:26.908Z,102495.72
2023-01-25T23:37:59.924Z,102500.91
2023-01-25T23:40:32.865Z,102493.09
2023-01-25T23:42:59.439Z,102499.19
2023-01-25T23:45:32.937Z,102502.69
2023-01-25T23:47:59.542Z,102497.44
2023-01-25T23:50:32.885Z,102492.22
2023-01-25T23:53:19.919Z,102487.84
2023-01-25T23:56:09.923Z,102483.50
2023-01-25T23:58:38.381Z,102454.84
